createdAt,value
2019-06-15T00:01:23.841Z,25.00
2019-06-15T00:03:25.294Z,24.96
2019-06-15T00:05:26.653Z,24.94
2019-06-15T00:07:28.031Z,24.86
2019-06-15T00:09:29.527Z,24.89
2019-06-15T00:11:30.968Z,25.04
2019-06-15T00:13:32.360Z,25.05
2019-06-15T00:15:33.741Z,25.02
2019-06-15T00:17:35.135Z,25.08
2019-06-15T00:19:36.497Z,25.03
2019-06-15T00:21:37.870Z,24.88
2019-06-15T00:23:39.326Z,24.72
2019-06-15T00:25:40.701Z,24.76
2019-06-15T00:27:42.079Z,24.80
2019-06-15T00:29:43.450Z,24.84
2019-06-15T00:31:44.865Z,24.79
2019-06-15T00:33:46.242Z,24.80
2019-06-15T00:35:47.649Z,24.99
2019-06-15T00:37:49.018Z,24.91
2019-06-15T00:39:50.414Z,25.00
2019-06-15T00:41:51.888Z,25.03
2019-06-15T00:43:53.290Z,25.09
2019-06-15T00:45:54.722Z,24.99
2019-06-15T00:47:56.191Z,24.93
2019-06-15T00:49:57.647Z,24.99
2019-06-15T00:51:59.044Z,24.80
2019-06-15T00:54:00.461Z,24.86
2019-06-15T00:56:01.853Z,24.85
2019-06-15T00:58:23.144Z,24.86
2019-06-15T01:00:24.609Z,24.82
2019-06-15T01:02:26.054Z,24.65
2019-06-15T01:04:27.429Z,24.72
2019-06-15T01:06:28.793Z,24.70
2019-06-15T01:08:30.200Z,24.62
2019-06-15T01:10:31.568Z,24.96
2019-06-15T01:12:32.928Z,24.89
2019-06-15T01:14:34.327Z,24.76
2019-06-15T01:16:35.730Z,24.67
2019-06-15T01:18:37.113Z,24.62
2019-06-15T01:20:38.634Z,24.71
2019-06-15T01:22:40.011Z,24.75
2019-06-15T01:24:41.367Z,24.66
2019-06-15T01:26:42.773Z,24.58
2019-06-15T01:28:44.247Z,24.70
2019-06-15T01:30:46.560Z,24.64
2019-06-15T01:32:47.935Z,24.57
2019-06-15T01:34:49.307Z,24.65
2019-06-15T01:36:50.713Z,24.63
2019-06-15T01:38:52.135Z,24.61
2019-06-15T01:40:53.545Z,24.48
2019-06-15T01:42:54.958Z,24.45
2019-06-15T01:44:56.330Z,24.45
2019-06-15T01:46:57.704Z,24.38
2019-06-15T01:48:59.092Z,24.48
2019-06-15T01:51:00.493Z,24.58
2019-06-15T01:53:01.944Z,24.69
2019-06-15T01:55:17.447Z,24.58
2019-06-15T01:57:08.923Z,24.58
2019-06-15T01:59:10.287Z,24.61
2019-06-15T02:01:11.733Z,24.45
2019-06-15T02:03:13.110Z,24.55
2019-06-15T02:05:15.179Z,24.54
2019-06-15T02:07:16.578Z,24.56
2019-06-15T02:09:17.965Z,24.47
2019-06-15T02:11:19.412Z,24.64
2019-06-15T02:13:20.790Z,24.65
2019-06-15T02:15:22.161Z,24.59
2019-06-15T02:17:23.572Z,24.62
2019-06-15T02:19:24.943Z,24.65
2019-06-15T02:21:26.352Z,24.50
2019-06-15T02:23:27.734Z,24.50
2019-06-15T02:25:35.738Z,24.41
2019-06-15T02:27:33.220Z,24.50
2019-06-15T02:29:34.642Z,24.43
2019-06-15T02:31:36.045Z,24.37
2019-06-15T02:33:37.428Z,24.44
2019-06-15T02:35:38.866Z,24.17
2019-06-15T02:37:40.274Z,24.09
2019-06-15T02:39:41.667Z,24.18
2019-06-15T02:41:43.122Z,24.08
2019-06-15T02:43:44.603Z,24.00
2019-06-15T02:45:46.009Z,24.07
2019-06-15T02:47:47.487Z,23.80
2019-06-15T02:49:48.914Z,23.80
2019-06-15T02:51:50.299Z,23.79
2019-06-15T02:53:51.673Z,23.71
2019-06-15T02:55:53.116Z,23.78
2019-06-15T02:57:54.487Z,23.74
2019-06-15T02:59:55.910Z,23.68
2019-06-15T03:01:58.510Z,23.53
2019-06-15T03:04:00.022Z,23.53
2019-06-15T03:06:01.389Z,23.56
2019-06-15T03:08:03.290Z,23.38
2019-06-15T03:10:06.509Z,23.47
2019-06-15T03:12:08.108Z,23.48
2019-06-15T03:14:09.473Z,23.59
2019-06-15T03:16:10.924Z,23.61
2019-06-15T03:18:12.395Z,23.69
2019-06-15T03:20:13.992Z,23.66
2019-06-15T03:22:15.392Z,23.68
2019-06-15T03:24:16.914Z,23.69
2019-06-15T03:26:18.374Z,23.74
2019-06-15T03:28:20.177Z,23.77
2019-06-15T03:30:21.736Z,23.67
2019-06-15T03:32:23.116Z,23.71
2019-06-15T03:34:24.527Z,23.65
2019-06-15T03:36:25.906Z,23.65
2019-06-15T03:38:27.325Z,23.66
2019-06-15T03:40:28.738Z,23.65
2019-06-15T03:42:30.176Z,23.69
2019-06-15T03:44:31.640Z,23.54
2019-06-15T03:46:33.069Z,23.59
2019-06-15T03:48:34.443Z,23.68
2019-06-15T03:50:35.849Z,23.67
2019-06-15T03:52:37.286Z,23.72
2019-06-15T03:54:38.748Z,23.65
2019-06-15T03:56:40.123Z,23.78
2019-06-15T03:58:41.524Z,23.68
2019-06-15T04:00:46.149Z,23.73
2019-06-15T04:02:47.655Z,23.86
2019-06-15T04:04:52.156Z,23.88
2019-06-15T04:06:52.372Z,23.98
2019-06-15T04:08:53.737Z,23.90
2019-06-15T04:10:55.164Z,23.93
2019-06-15T04:12:56.569Z,23.91
2019-06-15T04:14:57.949Z,23.90
2019-06-15T04:16:59.322Z,23.93
2019-06-15T04:19:00.718Z,23.87
2019-06-15T04:21:02.136Z,23.87
2019-06-15T04:23:04.717Z,23.88
2019-06-15T04:25:06.200Z,23.87
2019-06-15T04:27:07.629Z,23.78
2019-06-15T04:29:09.020Z,23.71
2019-06-15T04:31:10.386Z,23.76
2019-06-15T04:33:11.842Z,23.65
2019-06-15T04:35:13.423Z,23.76
2019-06-15T04:37:14.918Z,23.88
2019-06-15T04:39:16.366Z,23.81
2019-06-15T04:41:17.736Z,23.76
2019-06-15T04:43:19.114Z,23.79
2019-06-15T04:45:20.548Z,23.72
2019-06-15T04:47:21.932Z,23.73
2019-06-15T04:49:23.286Z,23.76
2019-06-15T04:51:24.698Z,23.86
2019-06-15T04:53:26.133Z,24.00
2019-06-15T04:55:27.511Z,24.20
2019-06-15T04:57:28.889Z,24.05
2019-06-15T04:59:30.335Z,24.21
2019-06-15T05:01:31.714Z,24.18
2019-06-15T05:03:33.127Z,24.21
2019-06-15T05:05:34.526Z,24.10
2019-06-15T05:07:35.887Z,24.14
2019-06-15T05:09:37.341Z,23.96
2019-06-15T05:11:38.735Z,24.03
2019-06-15T05:13:40.150Z,24.05
2019-06-15T05:15:41.545Z,24.03
2019-06-15T05:17:46.020Z,24.21
2019-06-15T05:19:46.232Z,24.34
2019-06-15T05:21:47.661Z,24.48
2019-06-15T05:23:49.058Z,24.40
2019-06-15T05:26:10.406Z,24.65
2019-06-15T05:28:11.836Z,24.54
2019-06-15T05:30:13.334Z,24.58
2019-06-15T05:32:14.741Z,24.54
2019-06-15T05:34:16.133Z,24.64
2019-06-15T05:36:17.521Z,24.80
2019-06-15T05:38:18.935Z,24.74
2019-06-15T05:40:20.391Z,24.83
2019-06-15T05:42:21.797Z,24.80
2019-06-15T05:44:23.223Z,24.81
2019-06-15T05:46:24.586Z,24.72
2019-06-15T05:48:26.046Z,24.87
2019-06-15T05:50:27.405Z,25.06
2019-06-15T05:52:28.755Z,25.13
2019-06-15T05:54:30.187Z,24.99
2019-06-15T05:56:33.459Z,25.00
2019-06-15T05:58:34.875Z,25.01
2019-06-15T06:00:36.279Z,25.12
2019-06-15T06:02:37.676Z,25.34
2019-06-15T06:04:39.072Z,26.05
2019-06-15T06:06:40.514Z,26.63
2019-06-15T06:08:41.908Z,27.02
2019-06-15T06:10:43.470Z,27.01
2019-06-15T06:12:44.946Z,27.27
2019-06-15T06:14:46.349Z,27.74
2019-06-15T06:16:47.740Z,27.96
2019-06-15T06:18:49.150Z,27.67
2019-06-15T06:20:50.633Z,28.34
2019-06-15T06:22:52.103Z,28.35
2019-06-15T06:24:53.508Z,28.34
2019-06-15T06:26:54.874Z,28.26
2019-06-15T06:28:57.527Z,26.94
2019-06-15T06:30:59.292Z,26.43
2019-06-15T06:33:00.671Z,26.22
2019-06-15T06:35:02.378Z,26.42
2019-06-15T06:37:03.852Z,26.46
2019-06-15T06:39:06.249Z,26.09
2019-06-15T06:41:07.671Z,26.37
2019-06-15T06:43:09.039Z,26.41
2019-06-15T06:45:10.902Z,26.57
2019-06-15T06:47:12.429Z,26.88
2019-06-15T06:49:13.807Z,27.07
2019-06-15T06:51:15.188Z,26.94
2019-06-15T06:53:16.635Z,26.87
2019-06-15T06:55:18.454Z,26.95
2019-06-15T06:57:19.826Z,26.70
2019-06-15T06:59:21.285Z,26.69
2019-06-15T07:01:23.198Z,26.80
2019-06-15T07:03:24.604Z,26.69
2019-06-15T07:05:25.981Z,26.82
2019-06-15T07:07:27.378Z,27.18
2019-06-15T07:09:28.776Z,27.20
2019-06-15T07:11:30.182Z,26.97
2019-06-15T07:13:31.567Z,27.06
2019-06-15T07:15:32.968Z,26.78
2019-06-15T07:17:34.340Z,26.61
2019-06-15T07:19:35.766Z,26.79
2019-06-15T07:21:37.398Z,27.04
2019-06-15T07:23:38.907Z,27.16
2019-06-15T07:25:40.297Z,28.05
2019-06-15T07:27:41.691Z,28.97
2019-06-15T07:29:43.073Z,29.27
2019-06-15T07:31:44.433Z,29.67
2019-06-15T07:33:45.879Z,29.68
2019-06-15T07:35:47.350Z,30.20
2019-06-15T07:37:48.797Z,30.21
2019-06-15T07:39:50.222Z,30.05
2019-06-15T07:41:51.610Z,29.54
2019-06-15T07:43:53.046Z,30.08
2019-06-15T07:45:54.480Z,30.31
2019-06-15T07:47:55.879Z,30.35
2019-06-15T07:49:57.245Z,30.73
2019-06-15T07:51:58.656Z,30.35
2019-06-15T07:54:00.123Z,30.67
2019-06-15T07:56:01.465Z,30.08
2019-06-15T07:58:02.931Z,30.51
2019-06-15T08:00:07.355Z,30.33
2019-06-15T08:02:08.725Z,30.49
2019-06-15T08:04:10.116Z,30.44
2019-06-15T08:06:11.540Z,30.70
2019-06-15T08:08:13.018Z,30.99
2019-06-15T08:10:14.629Z,31.09
2019-06-15T08:12:16.018Z,30.89
2019-06-15T08:14:17.397Z,30.67
2019-06-15T08:16:18.804Z,30.71
2019-06-15T08:18:20.195Z,30.69
2019-06-15T08:20:31.888Z,30.54
2019-06-15T08:22:33.307Z,30.63
2019-06-15T08:24:34.700Z,30.60
2019-06-15T08:26:36.240Z,30.57
2019-06-15T08:28:40.539Z,30.35
2019-06-15T08:30:42.553Z,30.80
2019-06-15T08:32:43.967Z,31.03
2019-06-15T08:34:45.347Z,31.11
2019-06-15T08:36:46.721Z,31.22
2019-06-15T08:38:48.149Z,31.22
2019-06-15T08:40:49.554Z,31.15
2019-06-15T08:42:50.915Z,31.04
2019-06-15T08:44:52.278Z,31.49
2019-06-15T08:46:53.740Z,31.07
2019-06-15T08:48:55.122Z,31.33
2019-06-15T08:50:56.496Z,31.43
2019-06-15T08:52:57.930Z,31.09
2019-06-15T08:54:59.463Z,30.71
2019-06-15T08:57:00.869Z,31.08
2019-06-15T08:59:02.240Z,31.31
2019-06-15T09:01:03.860Z,30.98
2019-06-15T09:03:05.255Z,30.87
2019-06-15T09:05:07.680Z,31.12
2019-06-15T09:07:09.100Z,30.94
2019-06-15T09:09:10.454Z,31.83
2019-06-15T09:11:12.606Z,31.93
2019-06-15T09:13:14.169Z,31.79
2019-06-15T09:15:26.500Z,31.65
2019-06-15T09:17:27.882Z,31.45
2019-06-15T09:19:29.264Z,31.53
2019-06-15T09:21:30.641Z,31.93
2019-06-15T09:23:32.052Z,31.75
2019-06-15T09:25:36.663Z,31.29
2019-06-15T09:27:36.693Z,31.42
2019-06-15T09:29:38.115Z,31.02
2019-06-15T09:31:39.481Z,31.23
2019-06-15T09:33:40.972Z,31.31
2019-06-15T09:35:42.373Z,31.19
2019-06-15T09:37:43.827Z,31.43
2019-06-15T09:39:45.234Z,31.47
2019-06-15T09:41:46.703Z,31.64
2019-06-15T09:43:48.133Z,31.62
2019-06-15T09:45:49.577Z,31.58
2019-06-15T09:47:51.008Z,32.23
2019-06-15T09:49:52.508Z,32.99
2019-06-15T09:51:53.868Z,32.52
2019-06-15T09:53:55.239Z,32.59
2019-06-15T09:55:56.683Z,32.65
2019-06-15T09:57:58.170Z,33.17
2019-06-15T09:59:59.563Z,33.69
2019-06-15T10:02:00.939Z,33.99
2019-06-15T10:04:02.382Z,34.15
2019-06-15T10:06:03.880Z,34.28
2019-06-15T10:08:05.284Z,33.48
2019-06-15T10:10:08.296Z,33.78
2019-06-15T10:12:09.809Z,34.03
2019-06-15T10:14:11.304Z,34.00
2019-06-15T10:16:32.638Z,34.45
2019-06-15T10:18:34.030Z,34.19
2019-06-15T10:20:35.461Z,34.40
2019-06-15T10:22:36.952Z,34.57
2019-06-15T10:24:38.434Z,34.50
2019-06-15T10:26:39.835Z,33.50
2019-06-15T10:28:41.263Z,33.27
2019-06-15T10:30:42.648Z,32.95
2019-06-15T10:32:43.991Z,32.82
2019-06-15T10:34:45.392Z,32.55
2019-06-15T10:36:46.889Z,32.86
2019-06-15T10:38:48.359Z,32.67
2019-06-15T10:40:49.774Z,32.66
2019-06-15T10:42:51.179Z,33.03
2019-06-15T10:44:52.679Z,33.41
2019-06-15T10:46:54.100Z,33.43
2019-06-15T10:48:55.775Z,33.28
2019-06-15T10:50:57.268Z,33.39
2019-06-15T10:52:58.781Z,33.24
2019-06-15T10:55:00.164Z,33.07
2019-06-15T10:57:01.534Z,33.21
2019-06-15T10:59:03.161Z,33.23
2019-06-15T11:01:04.756Z,32.86
2019-06-15T11:03:06.188Z,32.52
2019-06-15T11:05:11.164Z,33.22
2019-06-15T11:07:12.561Z,33.67
2019-06-15T11:09:14.046Z,33.91
2019-06-15T11:11:22.210Z,33.76
2019-06-15T11:13:23.806Z,33.21
2019-06-15T11:15:25.252Z,33.38
2019-06-15T11:17:26.781Z,33.21
2019-06-15T11:19:28.209Z,33.48
2019-06-15T11:21:29.579Z,33.36
2019-06-15T11:23:30.971Z,33.48
2019-06-15T11:25:32.364Z,33.49
2019-06-15T11:27:33.837Z,33.99
2019-06-15T11:29:35.258Z,35.36
2019-06-15T11:31:36.762Z,35.58
2019-06-15T11:33:38.212Z,35.43
2019-06-15T11:35:40.110Z,35.34
2019-06-15T11:37:41.486Z,34.98
2019-06-15T11:39:42.902Z,35.34
2019-06-15T11:41:44.281Z,35.75
2019-06-15T11:43:45.765Z,35.94
2019-06-15T11:45:47.158Z,36.07
2019-06-15T11:47:48.530Z,35.38
2019-06-15T11:49:49.946Z,34.04
2019-06-15T11:51:51.317Z,34.06
2019-06-15T11:53:52.694Z,33.87
2019-06-15T11:55:54.151Z,34.32
2019-06-15T11:57:55.567Z,34.78
2019-06-15T11:59:56.947Z,33.99
2019-06-15T12:01:58.417Z,34.12
2019-06-15T12:03:59.833Z,33.98
2019-06-15T12:06:01.199Z,34.31
2019-06-15T12:08:03.729Z,34.50
2019-06-15T12:10:06.725Z,34.07
2019-06-15T12:12:08.111Z,34.25
2019-06-15T12:14:09.477Z,34.33
2019-06-15T12:16:10.892Z,34.86
2019-06-15T12:18:12.254Z,35.34
2019-06-15T12:20:13.798Z,35.04
2019-06-15T12:22:15.287Z,34.41
2019-06-15T12:24:16.662Z,34.47
2019-06-15T12:26:18.096Z,33.78
2019-06-15T12:28:19.694Z,33.55
2019-06-15T12:30:29.636Z,33.45
2019-06-15T12:32:31.159Z,33.38
2019-06-15T12:34:32.687Z,33.30
2019-06-15T12:36:34.126Z,33.52
2019-06-15T12:38:35.717Z,33.55
2019-06-15T12:40:37.124Z,33.59
2019-06-15T12:42:38.573Z,33.55
2019-06-15T12:44:40.070Z,33.36
2019-06-15T12:46:41.623Z,33.08
2019-06-15T12:48:43.185Z,32.94
2019-06-15T12:50:44.830Z,32.64
2019-06-15T12:52:46.291Z,32.75
2019-06-15T12:54:47.732Z,32.88
2019-06-15T12:56:49.179Z,33.26
2019-06-15T12:58:50.573Z,33.24
2019-06-15T13:01:02.254Z,33.33
2019-06-15T13:02:55.254Z,33.71
2019-06-15T13:04:56.667Z,33.65
2019-06-15T13:06:58.052Z,33.10
2019-06-15T13:08:59.427Z,33.11
2019-06-15T13:11:00.914Z,32.71
2019-06-15T13:13:02.301Z,32.67
2019-06-15T13:15:04.501Z,33.24
2019-06-15T13:17:05.889Z,33.10
2019-06-15T13:19:07.286Z,32.34
2019-06-15T13:21:08.732Z,32.24
2019-06-15T13:23:10.166Z,32.64
2019-06-15T13:25:11.520Z,33.13
2019-06-15T13:27:12.912Z,33.35
2019-06-15T13:29:14.470Z,33.59
2019-06-15T13:31:18.495Z,33.33
2019-06-15T13:33:19.174Z,33.21
2019-06-15T13:35:20.580Z,33.25
2019-06-15T13:37:21.996Z,32.99
2019-06-15T13:39:23.360Z,33.12
2019-06-15T13:41:24.792Z,33.27
2019-06-15T13:43:26.582Z,33.35
2019-06-15T13:45:28.341Z,33.10
2019-06-15T13:47:30.249Z,33.24
2019-06-15T13:49:32.031Z,33.18
2019-06-15T13:51:33.706Z,33.46
2019-06-15T13:53:35.503Z,33.69
2019-06-15T13:55:37.228Z,33.41
2019-06-15T13:57:39.923Z,33.56
2019-06-15T13:59:41.795Z,33.43
2019-06-15T14:01:43.488Z,33.30
2019-06-15T14:03:45.270Z,33.49
2019-06-15T14:05:47.024Z,33.06
2019-06-15T14:07:48.803Z,33.15
2019-06-15T14:09:50.660Z,33.01
2019-06-15T14:11:52.393Z,32.98
2019-06-15T14:13:54.069Z,32.96
2019-06-15T14:15:55.754Z,32.63
2019-06-15T14:17:57.570Z,32.68
2019-06-15T14:19:59.850Z,32.69
2019-06-15T14:22:01.652Z,32.93
2019-06-15T14:24:03.478Z,32.79
2019-06-15T14:26:05.410Z,32.81
2019-06-15T14:28:07.278Z,32.65
2019-06-15T14:30:10.812Z,32.73
2019-06-15T14:32:12.652Z,32.22
2019-06-15T14:34:14.418Z,32.27
2019-06-15T14:36:16.245Z,32.61
2019-06-15T14:38:18.204Z,32.77
2019-06-15T14:40:20.147Z,32.76
2019-06-15T14:42:21.866Z,32.54
2019-06-15T14:44:23.662Z,32.78
2019-06-15T14:46:25.817Z,32.56
2019-06-15T14:48:27.541Z,32.51
2019-06-15T14:50:29.320Z,32.53
2019-06-15T14:52:31.285Z,32.43
2019-06-15T14:54:33.002Z,32.18
2019-06-15T14:56:34.804Z,32.34
2019-06-15T14:58:37.398Z,32.23
2019-06-15T15:00:39.379Z,32.22
2019-06-15T15:02:41.046Z,32.30
2019-06-15T15:04:42.872Z,32.34
2019-06-15T15:06:47.040Z,32.10
2019-06-15T15:08:48.352Z,31.51
2019-06-15T15:10:50.241Z,31.41
2019-06-15T15:12:51.973Z,31.38
2019-06-15T15:14:56.255Z,31.28
2019-06-15T15:16:58.502Z,31.58
2019-06-15T15:19:00.194Z,31.76
2019-06-15T15:21:01.889Z,31.62
2019-06-15T15:23:06.201Z,31.43
2019-06-15T15:25:08.078Z,31.35
2019-06-15T15:27:09.851Z,31.38
2019-06-15T15:29:11.610Z,31.39
2019-06-15T15:31:13.398Z,31.20
2019-06-15T15:33:15.199Z,31.19
2019-06-15T15:35:16.902Z,31.15
2019-06-15T15:37:18.708Z,30.89
2019-06-15T15:39:21.520Z,31.03
2019-06-15T15:41:23.310Z,31.06
2019-06-15T15:43:26.373Z,31.02
2019-06-15T15:45:28.286Z,30.75
2019-06-15T15:47:30.343Z,30.71
2019-06-15T15:49:32.025Z,30.72
2019-06-15T15:51:33.870Z,30.59
2019-06-15T15:53:37.369Z,30.55
2019-06-15T15:55:39.506Z,30.31
2019-06-15T15:57:41.375Z,30.10
2019-06-15T15:59:43.081Z,30.06
2019-06-15T16:01:46.135Z,29.98
2019-06-15T16:03:48.197Z,29.91
2019-06-15T16:05:49.994Z,29.78
2019-06-15T16:07:51.954Z,29.72
2019-06-15T16:09:53.639Z,29.72
2019-06-15T16:11:56.623Z,29.72
2019-06-15T16:13:58.556Z,29.81
2019-06-15T16:16:00.275Z,29.75
2019-06-15T16:18:02.134Z,29.83
2019-06-15T16:20:13.870Z,29.94
2019-06-15T16:22:15.531Z,29.80
2019-06-15T16:24:17.325Z,29.60
2019-06-15T16:26:19.130Z,29.59
2019-06-15T16:28:21.413Z,29.42
2019-06-15T16:30:59.814Z,29.67
2019-06-15T16:32:37.315Z,29.72
2019-06-15T16:34:38.861Z,29.72
2019-06-15T16:36:40.271Z,29.47
2019-06-15T16:38:41.707Z,29.31
2019-06-15T16:40:43.073Z,29.12
2019-06-15T16:42:46.611Z,28.98
2019-06-15T16:44:47.747Z,29.02
2019-06-15T16:46:49.162Z,29.16
2019-06-15T16:48:50.541Z,29.29
2019-06-15T16:50:51.954Z,29.45
2019-06-15T16:52:53.344Z,29.32
2019-06-15T16:54:54.726Z,29.29
2019-06-15T16:56:56.169Z,29.13
2019-06-15T16:58:57.624Z,29.27
2019-06-15T17:00:58.989Z,29.16
2019-06-15T17:03:16.360Z,29.15
2019-06-15T17:05:04.906Z,29.06
2019-06-15T17:07:07.152Z,29.01
2019-06-15T17:09:09.161Z,28.99
2019-06-15T17:11:10.566Z,28.99
2019-06-15T17:13:11.957Z,28.76
2019-06-15T17:15:13.741Z,28.64
2019-06-15T17:17:17.339Z,28.63
2019-06-15T17:19:18.461Z,28.56
2019-06-15T17:21:19.836Z,28.47
2019-06-15T17:23:21.350Z,28.59
2019-06-15T17:25:22.737Z,28.65
2019-06-15T17:27:26.158Z,28.61
2019-06-15T17:29:27.411Z,28.56
2019-06-15T17:31:28.825Z,28.40
2019-06-15T17:33:37.690Z,28.32
2019-06-15T17:35:36.141Z,28.26
2019-06-15T17:37:36.946Z,28.29
2019-06-15T17:39:38.340Z,28.16
2019-06-15T17:41:39.745Z,28.19
2019-06-15T17:43:41.136Z,28.15
2019-06-15T17:45:42.517Z,28.04
2019-06-15T17:47:46.606Z,28.11
2019-06-15T17:49:47.202Z,28.11
2019-06-15T17:51:48.577Z,27.96
2019-06-15T17:53:49.977Z,27.86
2019-06-15T17:55:51.344Z,27.92
2019-06-15T17:57:52.756Z,27.81
2019-06-15T17:59:54.181Z,27.77
2019-06-15T18:01:55.609Z,27.65
2019-06-15T18:03:58.105Z,27.49
2019-06-15T18:05:59.800Z,27.49
2019-06-15T18:08:01.691Z,27.36
2019-06-15T18:10:07.353Z,27.24
2019-06-15T18:12:08.852Z,27.27
2019-06-15T18:14:10.254Z,27.25
2019-06-15T18:16:11.687Z,27.23
2019-06-15T18:18:13.066Z,27.14
2019-06-15T18:20:18.655Z,27.19
2019-06-15T18:22:20.069Z,27.19
2019-06-15T18:24:21.453Z,27.06
2019-06-15T18:26:22.816Z,27.12
2019-06-15T18:28:26.395Z,26.87
2019-06-15T18:30:27.586Z,27.06
2019-06-15T18:32:28.970Z,26.99
2019-06-15T18:34:30.412Z,26.95
2019-06-15T18:36:31.866Z,26.83
2019-06-15T18:38:33.251Z,26.80
2019-06-15T18:40:37.000Z,26.52
2019-06-15T18:42:37.944Z,26.38
2019-06-15T18:44:39.315Z,26.30
2019-06-15T18:46:40.728Z,26.31
2019-06-15T18:48:42.113Z,26.34
2019-06-15T18:50:44.799Z,26.33
2019-06-15T18:52:46.222Z,26.19
2019-06-15T18:54:47.607Z,26.09
2019-06-15T18:56:48.965Z,25.97
2019-06-15T18:58:50.361Z,25.93
2019-06-15T19:00:51.915Z,25.79
2019-06-15T19:02:53.294Z,25.86
2019-06-15T19:04:56.689Z,25.87
2019-06-15T19:06:58.005Z,25.74
2019-06-15T19:08:59.367Z,25.69
2019-06-15T19:11:00.748Z,25.61
2019-06-15T19:13:04.070Z,25.51
2019-06-15T19:15:07.249Z,25.43
2019-06-15T19:17:09.034Z,25.32
2019-06-15T19:19:10.414Z,25.37
2019-06-15T19:21:11.784Z,25.32
2019-06-15T19:23:13.153Z,25.15
2019-06-15T19:25:16.196Z,25.22
2019-06-15T19:27:17.750Z,25.14
2019-06-15T19:29:19.168Z,25.18
2019-06-15T19:31:20.550Z,25.13
2019-06-15T19:33:21.929Z,25.04
2019-06-15T19:35:23.322Z,24.77
2019-06-15T19:37:26.101Z,24.73
2019-06-15T19:39:27.978Z,24.70
2019-06-15T19:41:29.404Z,24.52
2019-06-15T19:43:30.831Z,24.64
2019-06-15T19:45:32.213Z,24.40
2019-06-15T19:47:33.598Z,24.55
2019-06-15T19:49:36.321Z,24.56
2019-06-15T19:51:37.882Z,24.49
2019-06-15T19:53:39.256Z,24.51
2019-06-15T19:55:40.622Z,24.40
2019-06-15T19:57:42.037Z,24.34
2019-06-15T19:59:43.430Z,24.37
2019-06-15T20:01:46.852Z,24.32
2019-06-15T20:03:48.184Z,24.30
2019-06-15T20:05:49.572Z,24.21
2019-06-15T20:07:51.042Z,24.23
2019-06-15T20:09:52.412Z,24.02
2019-06-15T20:11:55.957Z,24.12
2019-06-15T20:13:57.113Z,24.08
2019-06-15T20:15:58.566Z,24.04
2019-06-15T20:17:59.948Z,23.93
2019-06-15T20:20:06.835Z,24.02
2019-06-15T20:22:07.824Z,23.97
2019-06-15T20:24:09.225Z,23.95
2019-06-15T20:26:10.590Z,23.89
2019-06-15T20:28:12.008Z,23.86
2019-06-15T20:30:16.973Z,23.72
2019-06-15T20:32:18.280Z,23.70
2019-06-15T20:34:19.700Z,23.73
2019-06-15T20:36:21.080Z,23.74
2019-06-15T20:38:22.485Z,23.62
2019-06-15T20:40:23.879Z,23.53
2019-06-15T20:42:27.005Z,23.52
2019-06-15T20:44:28.554Z,23.45
2019-06-15T20:46:29.937Z,23.46
2019-06-15T20:48:31.332Z,23.34
2019-06-15T20:50:32.685Z,23.35
2019-06-15T20:52:36.680Z,23.37
2019-06-15T20:54:37.405Z,23.29
2019-06-15T20:56:38.758Z,23.09
2019-06-15T20:58:40.132Z,23.06
2019-06-15T21:00:41.520Z,23.11
2019-06-15T21:02:42.985Z,23.03
2019-06-15T21:04:44.382Z,23.01
2019-06-15T21:06:45.772Z,23.06
2019-06-15T21:08:47.341Z,23.00
2019-06-15T21:11:08.924Z,22.99
2019-06-15T21:13:10.310Z,22.93
2019-06-15T21:15:12.574Z,22.84
2019-06-15T21:17:13.983Z,22.81
2019-06-15T21:19:17.007Z,22.83
2019-06-15T21:21:18.691Z,22.89
2019-06-15T21:23:20.103Z,22.83
2019-06-15T21:25:21.537Z,22.68
2019-06-15T21:27:22.963Z,22.68
2019-06-15T21:29:26.461Z,22.85
2019-06-15T21:31:27.601Z,22.80
2019-06-15T21:33:28.992Z,22.80
2019-06-15T21:35:30.372Z,22.53
2019-06-15T21:37:31.791Z,22.41
2019-06-15T21:39:33.153Z,22.57
2019-06-15T21:41:36.703Z,22.46
2019-06-15T21:43:38.012Z,22.49
2019-06-15T21:45:41.543Z,22.46
2019-06-15T21:47:43.240Z,22.39
2019-06-15T21:49:46.787Z,22.42
2019-06-15T21:51:47.942Z,22.40
2019-06-15T21:53:49.309Z,22.22
2019-06-15T21:55:50.722Z,22.31
2019-06-15T21:57:52.111Z,22.30
2019-06-15T21:59:53.483Z,22.29
2019-06-15T22:01:54.895Z,22.15
2019-06-15T22:03:56.296Z,22.04
2019-06-15T22:06:03.266Z,22.04
2019-06-15T22:08:01.000Z,22.08
2019-06-15T22:10:06.594Z,21.93
2019-06-15T22:12:08.138Z,21.98
2019-06-15T22:14:09.512Z,21.87
2019-06-15T22:16:13.796Z,21.77
2019-06-15T22:18:16.339Z,21.77
2019-06-15T22:20:17.652Z,21.76
2019-06-15T22:22:19.015Z,21.81
2019-06-15T22:24:20.688Z,21.64
2019-06-15T22:26:22.045Z,21.56
2019-06-15T22:28:23.445Z,21.62
2019-06-15T22:30:27.601Z,21.51
2019-06-15T22:32:28.157Z,21.57
2019-06-15T22:34:29.539Z,21.51
2019-06-15T22:36:30.961Z,21.43
2019-06-15T22:38:33.032Z,21.38
2019-06-15T22:40:36.334Z,21.50
2019-06-15T22:42:37.684Z,21.39
2019-06-15T22:44:39.055Z,21.25
2019-06-15T22:46:40.505Z,21.31
2019-06-15T22:48:41.951Z,21.10
2019-06-15T22:50:46.625Z,21.12
2019-06-15T22:52:47.498Z,21.14
2019-06-15T22:54:48.912Z,21.08
2019-06-15T22:56:50.293Z,21.07
2019-06-15T22:58:51.699Z,20.96
2019-06-15T23:00:53.175Z,20.98
2019-06-15T23:02:56.601Z,20.92
2019-06-15T23:04:57.851Z,20.81
2019-06-15T23:06:59.239Z,20.82
2019-06-15T23:09:00.684Z,20.85
2019-06-15T23:11:02.048Z,20.80
2019-06-15T23:13:03.496Z,20.78
2019-06-15T23:15:07.023Z,20.81
2019-06-15T23:17:08.802Z,20.76
2019-06-15T23:19:10.222Z,20.65
2019-06-15T23:21:11.594Z,20.75
2019-06-15T23:23:12.963Z,20.71
2019-06-15T23:25:16.619Z,20.62
2019-06-15T23:27:17.763Z,20.54
2019-06-15T23:29:19.157Z,20.44
2019-06-15T23:31:20.570Z,20.48
2019-06-15T23:33:21.969Z,20.49
2019-06-15T23:35:26.141Z,20.50
2019-06-15T23:37:27.669Z,20.40
2019-06-15T23:39:29.026Z,20.34
2019-06-15T23:41:30.408Z,20.36
2019-06-15T23:43:31.824Z,20.44
2019-06-15T23:45:33.210Z,20.32
2019-06-15T23:47:36.806Z,20.31
2019-06-15T23:49:37.902Z,20.22
2019-06-15T23:51:39.264Z,20.10
2019-06-15T23:53:40.652Z,20.08
2019-06-15T23:55:42.088Z,20.03
2019-06-15T23:57:46.304Z,19.97
2019-06-15T23:59:46.973Z,19.97
